createdAt,value
2023-11-24T00:01:41.809Z,10.59
2023-11-24T00:04:08.499Z,10.56
2023-11-24T00:06:35.121Z,10.54
2023-11-24T00:09:01.710Z,10.52
2023-11-24T00:11:28.412Z,10.50
2023-11-24T00:13:55.157Z,10.50
2023-11-24T00:16:22.522Z,10.49
2023-11-24T00:18:49.378Z,10.46
2023-11-24T00:21:16.281Z,10.45
2023-11-24T00:23:42.937Z,10.44
2023-11-24T00:26:10.221Z,10.41
2023-11-24T00:28:47.722Z,10.40
2023-11-24T00:31:14.349Z,10.38
2023-11-24T00:33:41.105Z,10.37
2023-11-24T00:36:08.036Z,10.32
2023-11-24T00:38:34.900Z,10.29
2023-11-24T00:41:01.520Z,10.36
2023-11-24T00:43:28.139Z,10.39
2023-11-24T00:45:54.929Z,10.35
2023-11-24T00:48:22.744Z,10.25
2023-11-24T00:50:49.384Z,10.19
2023-11-24T00:53:16.040Z,10.13
2023-11-24T00:55:42.631Z,10.05
2023-11-24T00:58:09.870Z,9.96
2023-11-24T01:00:39.335Z,9.94
2023-11-24T01:03:06.565Z,9.90
2023-11-24T01:05:34.400Z,9.87
2023-11-24T01:08:01.578Z,9.83
2023-11-24T01:10:28.464Z,9.78
2023-11-24T01:12:55.224Z,9.74
2023-11-24T01:15:22.700Z,9.75
2023-11-24T01:17:49.837Z,9.70
2023-11-24T01:20:17.609Z,9.68
2023-11-24T01:22:45.524Z,9.64
2023-11-24T01:25:13.038Z,9.69
2023-11-24T01:27:39.957Z,9.63
2023-11-24T01:30:10.363Z,9.63
2023-11-24T01:32:37.883Z,9.61
2023-11-24T01:35:05.247Z,9.60
2023-11-24T01:37:31.895Z,9.57
2023-11-24T01:39:58.557Z,9.56
2023-11-24T01:42:25.209Z,9.53
2023-11-24T01:44:51.813Z,9.54
2023-11-24T01:47:18.472Z,9.53
2023-11-24T01:49:46.976Z,9.51
2023-11-24T01:52:15.196Z,9.47
2023-11-24T01:54:43.515Z,9.46
2023-11-24T01:57:12.486Z,9.42
2023-11-24T01:59:40.364Z,9.41
2023-11-24T02:02:07.355Z,9.40
2023-11-24T02:04:34.094Z,9.41
2023-11-24T02:07:03.223Z,9.34
2023-11-24T02:09:31.393Z,9.29
2023-11-24T02:11:58.097Z,9.24
2023-11-24T02:14:24.968Z,9.20
2023-11-24T02:16:51.796Z,9.21
2023-11-24T02:19:18.408Z,9.20
2023-11-24T02:21:46.358Z,9.17
2023-11-24T02:24:13.898Z,9.15
2023-11-24T02:26:40.996Z,9.14
2023-11-24T02:29:09.612Z,9.11
2023-11-24T02:31:36.646Z,9.06
2023-11-24T02:34:04.644Z,9.00
2023-11-24T02:36:34.017Z,8.97
2023-11-24T02:39:00.579Z,8.91
2023-11-24T02:41:27.183Z,8.86
2023-11-24T02:43:53.768Z,8.81
2023-11-24T02:46:20.397Z,8.78
2023-11-24T02:48:48.250Z,8.74
2023-11-24T02:51:15.739Z,8.68
2023-11-24T02:53:43.635Z,8.65
2023-11-24T02:56:10.191Z,8.62
2023-11-24T02:58:37.920Z,8.58
2023-11-24T03:01:06.610Z,8.55
2023-11-24T03:03:33.499Z,8.52
2023-11-24T03:06:06.344Z,8.48
2023-11-24T03:08:36.105Z,8.48
2023-11-24T03:11:07.267Z,8.48
2023-11-24T03:13:35.397Z,8.47
2023-11-24T03:16:09.208Z,8.43
2023-11-24T03:18:36.560Z,8.41
2023-11-24T03:21:03.086Z,8.42
2023-11-24T03:23:29.656Z,8.41
2023-11-24T03:25:57.291Z,8.33
2023-11-24T03:28:24.961Z,8.26
2023-11-24T03:30:51.514Z,8.24
2023-11-24T03:33:18.186Z,8.23
2023-11-24T03:35:44.796Z,8.17
2023-11-24T03:38:11.379Z,8.19
2023-11-24T03:40:37.995Z,8.17
2023-11-24T03:43:05.352Z,8.18
2023-11-24T03:45:32.020Z,8.16
2023-11-24T03:47:58.656Z,8.13
2023-11-24T03:50:25.243Z,8.05
2023-11-24T03:52:52.163Z,8.02
2023-11-24T03:55:18.751Z,8.04
2023-11-24T03:57:46.237Z,7.98
2023-11-24T04:00:14.659Z,7.98
2023-11-24T04:02:42.821Z,7.98
2023-11-24T04:05:14.368Z,7.99
2023-11-24T04:07:41.011Z,8.00
2023-11-24T04:10:08.648Z,8.01
2023-11-24T04:12:35.335Z,8.02
2023-11-24T04:15:02.650Z,7.98
2023-11-24T04:17:29.342Z,7.98
2023-11-24T04:19:55.886Z,7.97
2023-11-24T04:22:22.596Z,8.00
2023-11-24T04:24:49.721Z,8.04
2023-11-24T04:27:16.366Z,7.99
2023-11-24T04:29:42.910Z,7.98
2023-11-24T04:32:10.670Z,7.95
2023-11-24T04:34:37.288Z,7.89
2023-11-24T04:37:04.532Z,7.86
2023-11-24T04:39:31.125Z,7.85
2023-11-24T04:41:57.680Z,7.86
2023-11-24T04:44:24.341Z,7.82
2023-11-24T04:46:50.981Z,7.83
2023-11-24T04:49:18.771Z,7.81
2023-11-24T04:51:45.360Z,7.82
2023-11-24T04:54:11.991Z,7.82
2023-11-24T04:56:38.566Z,7.86
2023-11-24T04:59:06.714Z,7.80
2023-11-24T05:01:33.336Z,7.80
2023-11-24T05:04:00.754Z,7.78
2023-11-24T05:06:27.528Z,7.80
2023-11-24T05:08:54.114Z,7.77
2023-11-24T05:11:20.734Z,7.78
2023-11-24T05:13:48.755Z,7.74
2023-11-24T05:16:15.500Z,7.72
2023-11-24T05:18:42.087Z,7.70
2023-11-24T05:21:09.436Z,7.70
2023-11-24T05:23:36.678Z,7.68
2023-11-24T05:26:03.296Z,7.68
2023-11-24T05:28:29.846Z,7.74
2023-11-24T05:30:56.773Z,7.72
2023-11-24T05:33:23.331Z,7.68
2023-11-24T05:35:50.998Z,7.70
2023-11-24T05:38:17.511Z,7.74
2023-11-24T05:40:46.490Z,7.78
2023-11-24T05:43:13.174Z,7.80
2023-11-24T05:45:39.735Z,7.82
2023-11-24T05:48:06.360Z,7.82
2023-11-24T05:50:32.908Z,7.82
2023-11-24T05:52:59.486Z,7.80
2023-11-24T05:55:26.003Z,7.79
2023-11-24T05:57:52.569Z,7.79
2023-11-24T06:00:19.742Z,7.82
2023-11-24T06:02:47.190Z,7.81
2023-11-24T06:05:14.026Z,7.83
2023-11-24T06:07:41.395Z,7.84
2023-11-24T06:10:10.523Z,7.82
2023-11-24T06:12:37.233Z,7.84
2023-11-24T06:15:04.764Z,7.85
2023-11-24T06:17:31.362Z,7.82
2023-11-24T06:19:57.936Z,7.75
2023-11-24T06:22:24.489Z,7.64
2023-11-24T06:24:51.061Z,7.62
2023-11-24T06:27:17.719Z,7.60
2023-11-24T06:29:44.225Z,7.54
2023-11-24T06:32:12.803Z,7.52
2023-11-24T06:34:39.479Z,7.51
2023-11-24T06:37:06.170Z,7.46
2023-11-24T06:39:32.948Z,7.45
2023-11-24T06:42:00.365Z,7.44
2023-11-24T06:44:27.377Z,7.43
2023-11-24T06:46:54.059Z,7.40
2023-11-24T06:49:20.832Z,7.36
2023-11-24T06:51:50.075Z,7.38
2023-11-24T06:54:16.727Z,7.35
2023-11-24T06:56:43.254Z,7.30
2023-11-24T06:59:09.962Z,7.30
2023-11-24T07:01:36.986Z,7.28
2023-11-24T07:04:04.204Z,7.25
2023-11-24T07:06:31.374Z,7.23
2023-11-24T07:08:58.021Z,7.23
2023-11-24T07:11:24.711Z,7.22
2023-11-24T07:13:52.433Z,7.20
2023-11-24T07:16:19.251Z,7.19
2023-11-24T07:18:46.103Z,7.18
2023-11-24T07:21:12.768Z,7.16
2023-11-24T07:23:39.360Z,7.19
2023-11-24T07:26:08.992Z,7.21
2023-11-24T07:28:36.788Z,7.21
2023-11-24T07:31:05.238Z,7.23
2023-11-24T07:33:32.624Z,7.25
2023-11-24T07:35:59.228Z,7.25
2023-11-24T07:38:26.413Z,7.27
2023-11-24T07:40:52.966Z,7.32
2023-11-24T07:43:19.580Z,7.31
2023-11-24T07:45:51.847Z,7.34
2023-11-24T07:48:19.294Z,7.29
2023-11-24T07:50:45.944Z,7.32
2023-11-24T07:53:14.801Z,7.21
2023-11-24T07:55:42.080Z,7.15
2023-11-24T07:58:08.897Z,7.05
2023-11-24T08:00:36.170Z,7.08
2023-11-24T08:03:03.273Z,7.03
2023-11-24T08:05:29.924Z,7.00
2023-11-24T08:07:56.664Z,7.02
2023-11-24T08:10:23.232Z,7.04
2023-11-24T08:12:49.854Z,7.05
2023-11-24T08:15:16.562Z,7.08
2023-11-24T08:17:44.430Z,7.08
2023-11-24T08:20:14.629Z,7.06
2023-11-24T08:22:41.256Z,7.06
2023-11-24T08:25:10.242Z,7.07
2023-11-24T08:27:37.196Z,7.05
2023-11-24T08:30:08.737Z,7.05
2023-11-24T08:32:35.398Z,7.09
2023-11-24T08:35:01.967Z,7.10
2023-11-24T08:37:28.869Z,7.07
2023-11-24T08:39:56.157Z,6.90
2023-11-24T08:42:26.004Z,6.84
2023-11-24T08:44:52.595Z,6.83
2023-11-24T08:47:19.563Z,6.79
2023-11-24T08:49:46.097Z,6.71
2023-11-24T08:52:12.623Z,6.69
2023-11-24T08:54:39.337Z,6.68
2023-11-24T08:57:06.146Z,6.67
2023-11-24T08:59:32.692Z,6.65
2023-11-24T09:01:59.389Z,6.64
2023-11-24T09:04:28.831Z,6.63
2023-11-24T09:06:55.476Z,6.61
2023-11-24T09:09:22.203Z,6.63
2023-11-24T09:11:49.055Z,6.66
2023-11-24T09:14:15.764Z,6.72
2023-11-24T09:16:42.666Z,6.70
2023-11-24T09:19:10.055Z,6.72
2023-11-24T09:21:36.960Z,6.68
2023-11-24T09:24:03.747Z,6.67
2023-11-24T09:26:30.373Z,6.64
2023-11-24T09:28:56.962Z,6.61
2023-11-24T09:31:23.610Z,6.59
2023-11-24T09:33:50.194Z,6.63
2023-11-24T09:36:16.699Z,6.67
2023-11-24T09:38:45.452Z,6.71
2023-11-24T09:41:15.190Z,6.78
2023-11-24T09:43:42.751Z,6.83
2023-11-24T09:46:10.548Z,6.85
2023-11-24T09:48:45.882Z,6.85
2023-11-24T09:51:18.303Z,6.86
2023-11-24T09:53:45.533Z,6.88
2023-11-24T09:56:12.330Z,6.89
2023-11-24T09:58:38.959Z,6.92
2023-11-24T10:01:16.428Z,6.94
2023-11-24T10:03:48.504Z,6.94
2023-11-24T10:06:15.418Z,7.03
2023-11-24T10:08:42.057Z,7.05
2023-11-24T10:11:16.018Z,7.07
2023-11-24T10:13:44.750Z,7.07
2023-11-24T10:16:12.396Z,7.06
2023-11-24T10:18:40.216Z,7.06
2023-11-24T10:21:17.020Z,7.03
2023-11-24T10:23:49.851Z,6.99
2023-11-24T10:26:17.592Z,6.98
2023-11-24T10:28:47.535Z,6.95
2023-11-24T10:31:15.051Z,6.99
2023-11-24T10:33:42.037Z,6.96
2023-11-24T10:36:09.300Z,7.01
2023-11-24T10:38:40.098Z,7.01
2023-11-24T10:41:12.843Z,7.06
2023-11-24T10:43:39.522Z,7.10
2023-11-24T10:46:14.125Z,7.12
2023-11-24T10:49:07.588Z,7.22
2023-11-24T10:51:34.273Z,7.23
2023-11-24T10:54:03.598Z,7.28
2023-11-24T10:56:32.677Z,7.29
2023-11-24T10:59:00.731Z,7.36
2023-11-24T11:01:28.483Z,7.42
2023-11-24T11:04:00.474Z,7.50
2023-11-24T11:06:43.923Z,7.59
2023-11-24T11:09:25.036Z,7.61
2023-11-24T11:12:14.316Z,7.60
2023-11-24T11:14:42.168Z,7.58
2023-11-24T11:17:21.018Z,7.54
2023-11-24T11:20:13.706Z,7.51
2023-11-24T11:22:42.228Z,7.45
2023-11-24T11:25:14.983Z,7.41
2023-11-24T11:27:43.725Z,7.35
2023-11-24T11:30:22.875Z,7.31
2023-11-24T11:33:11.497Z,7.28
2023-11-24T11:35:42.463Z,7.24
2023-11-24T11:38:12.765Z,7.27
2023-11-24T11:40:39.519Z,7.28
2023-11-24T11:43:10.740Z,7.30
2023-11-24T11:45:51.367Z,7.36
2023-11-24T11:48:18.531Z,7.34
2023-11-24T11:51:05.388Z,7.38
2023-11-24T11:53:34.929Z,7.39
2023-11-24T11:56:06.990Z,7.36
2023-11-24T11:58:36.020Z,7.28
2023-11-24T12:01:06.195Z,7.25
2023-11-24T12:03:34.734Z,7.26
2023-11-24T12:06:08.230Z,7.32
2023-11-24T12:08:35.347Z,7.39
2023-11-24T12:11:01.920Z,7.39
2023-11-24T12:13:30.072Z,7.44
2023-11-24T12:16:00.330Z,7.45
2023-11-24T12:18:27.220Z,7.45
2023-11-24T12:20:54.199Z,7.45
2023-11-24T12:23:22.923Z,7.44
2023-11-24T12:25:49.877Z,7.48
2023-11-24T12:28:17.343Z,7.53
2023-11-24T12:30:44.940Z,7.56
2023-11-24T12:33:20.129Z,7.59
2023-11-24T12:35:56.391Z,7.62
2023-11-24T12:38:23.432Z,7.64
2023-11-24T12:40:51.722Z,7.66
2023-11-24T12:43:22.643Z,7.72
2023-11-24T12:45:50.625Z,7.71
2023-11-24T12:48:24.001Z,7.66
2023-11-24T12:50:54.048Z,7.64
2023-11-24T12:53:21.330Z,7.58
2023-11-24T12:55:48.237Z,7.50
2023-11-24T12:58:15.063Z,7.48
2023-11-24T13:00:43.429Z,7.50
2023-11-24T13:03:11.352Z,7.45
2023-11-24T13:05:40.883Z,7.44
2023-11-24T13:08:08.042Z,7.44
2023-11-24T13:10:35.737Z,7.45
2023-11-24T13:13:03.065Z,7.45
2023-11-24T13:15:29.960Z,7.47
2023-11-24T13:17:57.282Z,7.46
2023-11-24T13:20:29.492Z,7.47
2023-11-24T13:22:56.630Z,7.48
2023-11-24T13:25:30.306Z,7.47
2023-11-24T13:27:57.926Z,7.41
2023-11-24T13:30:26.269Z,7.42
2023-11-24T13:32:52.841Z,7.36
2023-11-24T13:35:21.245Z,7.36
2023-11-24T13:37:49.311Z,7.38
2023-11-24T13:40:21.137Z,7.40
2023-11-24T13:42:47.725Z,7.52
2023-11-24T13:45:14.696Z,7.42
2023-11-24T13:47:42.174Z,7.44
2023-11-24T13:50:10.340Z,7.45
2023-11-24T13:52:37.088Z,7.41
2023-11-24T13:55:06.910Z,7.34
2023-11-24T13:57:33.765Z,7.18
2023-11-24T14:00:00.431Z,7.09
2023-11-24T14:02:27.111Z,7.00
2023-11-24T14:04:55.660Z,6.95
2023-11-24T14:07:22.498Z,6.90
2023-11-24T14:09:50.086Z,6.94
2023-11-24T14:12:16.858Z,6.91
2023-11-24T14:14:44.166Z,6.91
2023-11-24T14:17:10.937Z,6.90
2023-11-24T14:19:37.511Z,6.92
2023-11-24T14:22:05.832Z,6.97
2023-11-24T14:24:33.842Z,7.00
2023-11-24T14:27:00.721Z,7.01
2023-11-24T14:29:29.173Z,6.99
2023-11-24T14:31:56.099Z,6.94
2023-11-24T14:34:22.761Z,6.84
2023-11-24T14:36:50.100Z,6.79
2023-11-24T14:41:59.365Z,6.68
2023-11-24T14:44:26.000Z,6.67
2023-11-24T14:46:53.047Z,6.68
2023-11-24T14:49:19.922Z,6.72
2023-11-24T14:51:48.741Z,6.78
2023-11-24T14:54:17.551Z,6.83
2023-11-24T14:56:44.751Z,6.84
2023-11-24T14:59:11.966Z,6.80
2023-11-24T15:01:39.910Z,6.77
2023-11-24T15:04:16.833Z,6.74
2023-11-24T15:06:51.036Z,6.72
2023-11-24T15:09:18.111Z,6.73
2023-11-24T15:11:45.182Z,6.69
2023-11-24T15:14:15.567Z,6.68
2023-11-24T15:16:57.969Z,6.65
2023-11-24T15:19:27.142Z,6.71
2023-11-24T15:21:54.778Z,6.68
2023-11-24T15:24:21.430Z,6.68
2023-11-24T15:26:48.230Z,6.69
2023-11-24T15:29:17.642Z,6.70
2023-11-24T15:31:47.569Z,6.65
2023-11-24T15:34:14.855Z,6.70
2023-11-24T15:36:42.086Z,6.73
2023-11-24T15:39:31.833Z,6.75
2023-11-24T15:41:58.422Z,6.79
2023-11-24T15:44:27.906Z,6.79
2023-11-24T15:46:56.244Z,6.82
2023-11-24T15:49:22.957Z,6.80
2023-11-24T15:51:54.181Z,6.78
2023-11-24T15:54:25.316Z,6.77
2023-11-24T15:56:53.094Z,6.74
2023-11-24T15:59:25.664Z,6.74
2023-11-24T16:01:53.783Z,6.71
2023-11-24T16:04:22.642Z,6.70
2023-11-24T16:06:55.965Z,6.66
2023-11-24T16:09:26.933Z,6.66
2023-11-24T16:12:15.066Z,6.68
2023-11-24T16:14:44.107Z,6.68
2023-11-24T16:17:10.810Z,6.65
2023-11-24T16:19:37.688Z,6.64
2023-11-24T16:22:06.072Z,6.58
2023-11-24T16:24:32.868Z,6.56
2023-11-24T16:27:00.110Z,6.53
2023-11-24T16:29:26.787Z,6.50
2023-11-24T16:31:55.206Z,6.43
2023-11-24T16:34:26.443Z,6.44
2023-11-24T16:36:56.588Z,6.37
2023-11-24T16:39:24.154Z,6.35
2023-11-24T16:41:51.231Z,6.30
2023-11-24T16:44:18.033Z,6.25
2023-11-24T16:46:56.479Z,6.25
2023-11-24T16:49:23.223Z,6.22
2023-11-24T16:51:49.764Z,6.19
2023-11-24T16:54:16.482Z,6.17
2023-11-24T16:56:43.038Z,6.14
2023-11-24T16:59:09.675Z,6.13
2023-11-24T17:01:36.318Z,6.08
2023-11-24T17:04:03.184Z,6.07
2023-11-24T17:06:29.906Z,6.04
2023-11-24T17:08:56.447Z,6.06
2023-11-24T17:11:23.013Z,6.07
2023-11-24T17:13:49.570Z,6.07
2023-11-24T17:16:16.544Z,6.03
2023-11-24T17:18:43.251Z,6.03
2023-11-24T17:21:09.849Z,6.02
2023-11-24T17:23:41.323Z,6.05
2023-11-24T17:26:10.850Z,6.03
2023-11-24T17:28:37.880Z,6.09
2023-11-24T17:31:08.902Z,6.06
2023-11-24T17:33:40.491Z,6.06
2023-11-24T17:36:09.019Z,6.12
2023-11-24T17:38:35.733Z,6.03
2023-11-24T17:41:02.511Z,6.18
2023-11-24T17:43:30.324Z,6.16
2023-11-24T17:45:57.577Z,6.12
2023-11-24T17:48:24.602Z,6.12
2023-11-24T17:50:52.052Z,6.13
2023-11-24T17:53:19.593Z,6.15
2023-11-24T17:55:46.172Z,6.17
2023-11-24T17:58:12.777Z,6.14
2023-11-24T18:00:40.985Z,6.11
2023-11-24T18:03:08.598Z,6.07
2023-11-24T18:05:35.338Z,6.08
2023-11-24T18:08:04.108Z,6.07
2023-11-24T18:10:31.030Z,6.09
2023-11-24T18:12:57.992Z,6.10
2023-11-24T18:15:24.677Z,6.13
2023-11-24T18:17:51.237Z,6.09
2023-11-24T18:20:18.780Z,5.98
2023-11-24T18:22:45.357Z,5.95
2023-11-24T18:25:13.305Z,5.91
2023-11-24T18:27:40.608Z,5.92
2023-11-24T18:30:11.082Z,5.93
2023-11-24T18:32:38.913Z,5.93
2023-11-24T18:35:06.078Z,5.92
2023-11-24T18:37:32.860Z,5.93
2023-11-24T18:40:01.806Z,5.91
2023-11-24T18:42:30.433Z,5.86
2023-11-24T18:44:57.078Z,5.93
2023-11-24T18:47:26.603Z,5.90
2023-11-24T18:49:54.200Z,5.92
2023-11-24T18:52:21.775Z,5.93
2023-11-24T18:54:49.410Z,5.94
2023-11-24T18:57:16.387Z,5.94
2023-11-24T18:59:42.957Z,5.92
2023-11-24T19:02:10.234Z,5.95
2023-11-24T19:04:37.360Z,5.96
2023-11-24T19:07:04.269Z,6.02
2023-11-24T19:09:30.891Z,6.03
2023-11-24T19:11:57.519Z,6.05
2023-11-24T19:14:24.179Z,6.07
2023-11-24T19:16:51.493Z,6.06
2023-11-24T19:19:18.381Z,6.09
2023-11-24T19:21:45.250Z,6.13
2023-11-24T19:24:11.841Z,6.15
2023-11-24T19:26:38.476Z,6.15
2023-11-24T19:29:10.727Z,6.14
2023-11-24T19:31:38.595Z,6.15
2023-11-24T19:34:06.866Z,6.17
2023-11-24T19:36:33.638Z,6.16
2023-11-24T19:39:01.162Z,6.16
2023-11-24T19:41:27.784Z,6.16
2023-11-24T19:43:54.360Z,6.18
2023-11-24T19:46:23.277Z,6.18
2023-11-24T19:48:51.801Z,6.16
2023-11-24T19:51:19.224Z,6.22
2023-11-24T19:53:49.227Z,6.22
2023-11-24T19:56:17.276Z,6.26
2023-11-24T19:58:43.869Z,6.27
2023-11-24T20:01:10.590Z,6.30
2023-11-24T20:03:39.700Z,6.31
2023-11-24T20:06:07.508Z,6.30
2023-11-24T20:08:34.477Z,6.31
2023-11-24T20:11:01.114Z,6.30
2023-11-24T20:13:27.718Z,6.29
2023-11-24T20:15:54.455Z,6.26
2023-11-24T20:18:21.079Z,6.23
2023-11-24T20:20:47.933Z,6.22
2023-11-24T20:23:14.644Z,6.21
2023-11-24T20:25:41.284Z,6.19
2023-11-24T20:28:10.501Z,6.15
2023-11-24T20:30:37.169Z,6.13
2023-11-24T20:33:03.809Z,6.12
2023-11-24T20:35:30.866Z,6.12
2023-11-24T20:37:57.789Z,6.11
2023-11-24T20:40:27.234Z,6.12
2023-11-24T20:42:53.845Z,6.10
2023-11-24T20:45:20.712Z,6.08
2023-11-24T20:47:49.865Z,6.09
2023-11-24T20:50:18.871Z,6.08
2023-11-24T20:52:46.324Z,6.07
2023-11-24T20:55:17.982Z,6.06
2023-11-24T20:57:44.591Z,6.15
2023-11-24T21:00:12.685Z,6.01
2023-11-24T21:02:40.709Z,6.00
2023-11-24T21:05:13.065Z,5.97
2023-11-24T21:07:40.692Z,5.95
2023-11-24T21:10:07.517Z,5.94
2023-11-24T21:12:34.066Z,5.93
2023-11-24T21:15:00.651Z,5.90
2023-11-24T21:17:27.708Z,5.86
2023-11-24T21:19:54.332Z,5.82
2023-11-24T21:22:20.924Z,5.81
2023-11-24T21:24:47.598Z,5.79
2023-11-24T21:27:14.532Z,5.77
2023-11-24T21:29:41.129Z,5.75
2023-11-24T21:32:07.793Z,5.71
2023-11-24T21:34:34.500Z,5.69
2023-11-24T21:37:01.159Z,5.68
2023-11-24T21:39:27.688Z,5.68
2023-11-24T21:41:54.237Z,5.65
2023-11-24T21:44:20.791Z,5.67
2023-11-24T21:46:49.359Z,5.67
2023-11-24T21:49:16.406Z,5.68
2023-11-24T21:51:43.079Z,5.69
2023-11-24T21:54:10.011Z,5.69
2023-11-24T21:56:36.969Z,5.68
2023-11-24T21:59:03.680Z,5.70
2023-11-24T22:01:31.944Z,5.70
2023-11-24T22:03:59.158Z,5.70
2023-11-24T22:06:29.635Z,5.70
2023-11-24T22:08:56.439Z,5.66
2023-11-24T22:11:23.048Z,5.70
2023-11-24T22:13:49.670Z,5.68
2023-11-24T22:16:16.459Z,5.67
2023-11-24T22:18:43.933Z,5.60
2023-11-24T22:21:10.520Z,5.58
2023-11-24T22:23:37.097Z,5.56
2023-11-24T22:26:03.810Z,5.57
2023-11-24T22:28:30.495Z,5.54
2023-11-24T22:30:57.806Z,5.54
2023-11-24T22:33:24.544Z,5.51
2023-11-24T22:35:51.139Z,5.51
2023-11-24T22:38:17.746Z,5.51
2023-11-24T22:40:49.012Z,5.48
2023-11-24T22:43:15.985Z,5.47
2023-11-24T22:45:43.822Z,5.48
2023-11-24T22:48:13.604Z,5.49
2023-11-24T22:50:40.190Z,5.50
2023-11-24T22:53:06.840Z,5.52
2023-11-24T22:55:34.372Z,5.51
2023-11-24T22:58:01.069Z,5.52
2023-11-24T23:00:37.570Z,5.52
2023-11-24T23:03:04.718Z,5.48
2023-11-24T23:05:31.622Z,5.45
2023-11-24T23:07:58.263Z,5.45
2023-11-24T23:10:24.899Z,5.45
2023-11-24T23:12:51.714Z,5.46
2023-11-24T23:15:18.339Z,5.50
2023-11-24T23:17:45.524Z,5.46
2023-11-24T23:20:12.199Z,5.48
2023-11-24T23:22:38.846Z,5.49
2023-11-24T23:25:07.584Z,5.49
2023-11-24T23:27:36.021Z,5.51
2023-11-24T23:30:02.903Z,5.53
2023-11-24T23:32:29.518Z,5.55
2023-11-24T23:34:56.163Z,5.54
2023-11-24T23:37:22.804Z,5.53
2023-11-24T23:39:51.074Z,5.58
2023-11-24T23:42:18.238Z,5.60
2023-11-24T23:44:44.788Z,5.61
2023-11-24T23:47:11.418Z,5.59
2023-11-24T23:49:38.123Z,5.59
2023-11-24T23:52:05.934Z,5.60
2023-11-24T23:54:32.548Z,5.60
2023-11-24T23:56:59.107Z,5.60
2023-11-24T23:59:25.671Z,5.58
